地図

経路データ

SID SEASON NUMBER BASIN SUBBASIN NAME ISO_TIME NATURE LAT LON WMO_WIND WMO_PRES WMO_AGENCY TRACK_TYPE DIST2LAND LANDFALL IFLAG USA_AGENCY USA_ATCF_ID USA_LAT USA_LON USA_RECORD USA_STATUS USA_WIND USA_PRES USA_SSHS USA_R34_NE USA_R34_SE USA_R34_SW USA_R34_NW USA_R50_NE USA_R50_SE USA_R50_SW USA_R50_NW USA_R64_NE USA_R64_SE USA_R64_SW USA_R64_NW USA_POCI USA_ROCI USA_RMW USA_EYE TOKYO_LAT TOKYO_LON TOKYO_GRADE TOKYO_WIND TOKYO_PRES TOKYO_R50_DIR TOKYO_R50_LONG TOKYO_R50_SHORT TOKYO_R30_DIR TOKYO_R30_LONG TOKYO_R30_SHORT TOKYO_LAND CMA_LAT CMA_LON CMA_CAT CMA_WIND CMA_PRES HKO_LAT HKO_LON HKO_CAT HKO_WIND HKO_PRES NEWDELHI_LAT NEWDELHI_LON NEWDELHI_GRADE NEWDELHI_WIND NEWDELHI_PRES NEWDELHI_CI NEWDELHI_DP NEWDELHI_POCI REUNION_LAT REUNION_LON REUNION_TYPE REUNION_WIND REUNION_PRES REUNION_TNUM REUNION_CI REUNION_RMW REUNION_R34_NE REUNION_R34_SE REUNION_R34_SW REUNION_R34_NW REUNION_R50_NE REUNION_R50_SE REUNION_R50_SW REUNION_R50_NW REUNION_R64_NE REUNION_R64_SE REUNION_R64_SW REUNION_R64_NW BOM_LAT BOM_LON BOM_TYPE BOM_WIND BOM_PRES BOM_TNUM BOM_CI BOM_RMW BOM_R34_NE BOM_R34_SE BOM_R34_SW BOM_R34_NW BOM_R50_NE BOM_R50_SE BOM_R50_SW BOM_R50_NW BOM_R64_NE BOM_R64_SE BOM_R64_SW BOM_R64_NW BOM_ROCI BOM_POCI BOM_EYE BOM_POS_METHOD BOM_PRES_METHOD NADI_LAT NADI_LON NADI_CAT NADI_WIND NADI_PRES WELLINGTON_LAT WELLINGTON_LON WELLINGTON_WIND WELLINGTON_PRES DS824_LAT DS824_LON DS824_STAGE DS824_WIND DS824_PRES TD9636_LAT TD9636_LON TD9636_STAGE TD9636_WIND TD9636_PRES TD9635_LAT TD9635_LON TD9635_WIND TD9635_PRES TD9635_ROCI NEUMANN_LAT NEUMANN_LON NEUMANN_CLASS NEUMANN_WIND NEUMANN_PRES MLC_LAT MLC_LON MLC_CLASS MLC_WIND MLC_PRES USA_GUST BOM_GUST BOM_GUST_PER REUNION_GUST REUNION_GUST_PER USA_SEAHGT USA_SEARAD_NE USA_SEARAD_SE USA_SEARAD_SW USA_SEARAD_NW STORM_SPEED STORM_DIR
1917003S18140 1917 2 SP EA NOT_NAMED 1917-01-02 23:00:00 NR -17.8000 140.400 main 0 0 __________O___ -1 -17.8000 140.400 7 14 123
1917003S18140 1917 2 SP EA NOT_NAMED 1917-01-03 00:00:00 NR -17.9267 140.604 main 0 0 __________P___ -1 -17.9267 140.604 7 14 123
1917003S18140 1917 2 SP EA NOT_NAMED 1917-01-03 03:00:00 NR -18.3088 141.219 main 0 0 __________P___ -1 -18.3088 141.219 7 14 123
1917003S18140 1917 2 SP EA NOT_NAMED 1917-01-03 06:00:00 NR -18.7008 141.840 main 0 0 __________P___ -1 -18.7008 141.840 7 14 124
1917003S18140 1917 2 SP EA NOT_NAMED 1917-01-03 09:00:00 NR -19.1115 142.472 main 0 0 __________P___ -1 -19.1115 142.472 7 15 125
1917003S18140 1917 2 SP EA NOT_NAMED 1917-01-03 11:00:00 NR -19.4000 142.900 main 0 0 __________O___ -1 -19.4000 142.900 7 15 126
1917003S18140 1917 2 SP EA NOT_NAMED 1917-01-03 12:00:00 NR -19.5494 143.116 main 0 0 __________P___ -1 -19.5494 143.116 7 15 127
1917003S18140 1917 2 SP EA NOT_NAMED 1917-01-03 15:00:00 NR -20.0043 143.762 main 0 0 __________P___ -1 -20.0043 143.762 7 15 127
1917003S18140 1917 2 SP EA NOT_NAMED 1917-01-03 18:00:00 NR -20.4375 144.373 main 0 0 __________P___ -1 -20.4375 144.373 7 13 127
1917003S18140 1917 2 SP EA NOT_NAMED 1917-01-03 21:00:00 NR -20.8079 144.907 main 0 0 __________P___ -1 -20.8079 144.907 7 12 126
1917003S18140 1917 2 SP EA NOT_NAMED 1917-01-03 23:00:00 NR -21.0000 145.200 main 0 0 __________O___ -1 -21.0000 145.200 7 9 124
1917003S18140 1917 2 SP EA NOT_NAMED 1917-01-04 00:00:00 NR -21.0644 145.317 main 0 0 __________P___ -1 -21.0644 145.317 7 6 117
1917003S18140 1917 2 SP EA NOT_NAMED 1917-01-04 03:00:00 NR -21.1849 145.582 main 0 0 __________P___ -1 -21.1849 145.582 7 4 113
1917003S18140 1917 2 SP EA NOT_NAMED 1917-01-04 06:00:00 NR -21.2357 145.760 main 0 0 __________P___ -1 -21.2357 145.760 7 3 105
1917003S18140 1917 2 SP EA NOT_NAMED 1917-01-04 09:00:00 NR -21.2664 145.901 main 0 0 __________P___ -1 -21.2664 145.901 7 3 106
1917003S18140 1917 2 SP EA NOT_NAMED 1917-01-04 11:00:00 NR -21.3000 146.000 main 0 0 __________O___ -1 -21.3000 146.000 7 4 116
1917003S18140 1917 2 SP EA NOT_NAMED 1917-01-04 12:00:00 NR -21.3436 146.073 main 0 0 __________P___ -1 -21.3436 146.073 7 5 125
1917003S18140 1917 2 SP EA NOT_NAMED 1917-01-04 15:00:00 NR -21.4926 146.297 main 0 0 __________P___ -1 -21.4926 146.297 7 5 126
1917003S18140 1917 2 SP EA NOT_NAMED 1917-01-04 18:00:00 NR -21.6540 146.526 main 0 0 __________P___ -1 -21.6540 146.526 7 5 127
1917003S18140 1917 2 SP EA NOT_NAMED 1917-01-04 21:00:00 NR -21.8093 146.753 main 0 0 __________P___ -1 -21.8093 146.753 7 5 125
1917003S18140 1917 2 SP EA NOT_NAMED 1917-01-04 23:00:00 NR -21.9000 146.900 main 0 0 __________O___ -1 -21.9000 146.900 7 5 122
1917003S18140 1917 2 SP EA NOT_NAMED 1917-01-05 00:00:00 NR -21.9325 146.965 main 0 0 __________P___ -1 -21.9325 146.965 7 4 116
1917003S18140 1917 2 SP EA NOT_NAMED 1917-01-05 03:00:00 NR -22.0125 147.153 main 0 0 __________P___ -1 -22.0125 147.153 7 4 113
1917003S18140 1917 2 SP EA NOT_NAMED 1917-01-05 06:00:00 NR -22.0785 147.342 main 0 0 __________P___ -1 -22.0785 147.342 7 4 110
1917003S18140 1917 2 SP EA NOT_NAMED 1917-01-05 09:00:00 NR -22.1462 147.547 main 0 0 __________P___ -1 -22.1462 147.547 7 4 110
1917003S18140 1917 2 SP EA NOT_NAMED 1917-01-05 11:00:00 NR -22.2000 147.700 main 0 0 __________O___ -1 -22.2000 147.700 7 5 111
1917003S18140 1917 2 SP EA NOT_NAMED 1917-01-05 12:00:00 NR -22.2311 147.783 main 0 0 __________P___ -1 -22.2311 147.783 7 5 113
1917003S18140 1917 2 SP EA NOT_NAMED 1917-01-05 15:00:00 NR -22.3401 148.057 main 0 0 __________P___ -1 -22.3401 148.057 7 6 114
1917003S18140 1917 2 SP EA NOT_NAMED 1917-01-05 18:00:00 NR -22.4672 148.360 main 0 0 __________P___ -1 -22.4672 148.360 7 6 115
1917003S18140 1917 2 SP EA NOT_NAMED 1917-01-05 21:00:00 NR -22.6053 148.681 main 0 0 __________P___ -1 -22.6053 148.681 7 7 115
1917003S18140 1917 2 SP EA NOT_NAMED 1917-01-05 23:00:00 NR -22.7000 148.900 main 0 __________O___ -1 -22.7000 148.900 7 7 115

デジタル台風データ・検索

IBTrACS Databaseについて

本データベースは、米国NOAAが公開する1842年以降の世界の熱帯低気圧のベストトラックデータアーカイブInternational Best Track Archive for Climate Stewardship (IBTrACS)を、ウェブで閲覧しやすい形式に変換したものです。

最終更新日:2021-12-06